Time;durP1;ratioP1;P1;durP2;ratioP2;P2;SDS_P1;SDS_P2;PMS_P1;PMS_P2;Temp;Humidity;BMP_temperature;BMP_pressure;BME280_temperature;BME280_humidity;BME280_pressure;Samples;Min_cycle;Max_cycle;Signal;HPM_P1;HPM_P2
2024/01/17 00:01:28;;;;;;;3.90;2.08;;;-1.40;99.90;;;-1.93;100.00;99751.44;5227190;28;20132;-48
2024/01/17 00:04:00;;;;;;;3.30;2.78;;;-1.40;99.90;;;-1.94;100.00;99747.13;5229918;28;20048;-45
2024/01/17 00:06:32;;;;;;;4.05;2.47;;;-1.40;99.90;;;-1.97;100.00;99729.03;5234239;28;20099;-46
2024/01/17 00:09:05;;;;;;;3.33;2.67;;;-1.40;99.90;;;-1.96;100.00;99735.94;5232282;28;20101;-47
2024/01/17 00:11:39;;;;;;;3.55;1.90;;;-1.40;99.90;;;-1.96;100.00;99735.94;5237518;28;20730;-47
2024/01/17 00:14:12;;;;;;;1.27;1.17;;;-1.40;99.90;;;-1.96;100.00;99730.81;5241829;28;20515;-47
2024/01/17 00:16:44;;;;;;;2.97;1.63;;;-1.40;99.90;;;-1.97;100.00;99720.47;5242932;28;20060;-49
2024/01/17 00:19:16;;;;;;;1.73;1.63;;;-1.40;99.90;;;-1.99;100.00;99725.50;5231668;28;20127;-47
2024/01/17 00:21:50;;;;;;;4.60;2.25;;;-1.50;99.90;;;-2.00;100.00;99720.28;5240555;28;20045;-47
2024/01/17 00:24:23;;;;;;;2.35;1.95;;;-1.40;99.90;;;-2.01;100.00;99714.31;5227692;28;20060;-47
2024/01/17 00:26:57;;;;;;;3.63;1.95;;;-1.40;99.90;;;-2.02;100.00;99712.53;5247540;28;20419;-46
2024/01/17 00:29:29;;;;;;;2.15;1.67;;;-1.50;99.90;;;-2.05;100.00;99707.19;5236607;28;20136;-46
2024/01/17 00:32:02;;;;;;;2.53;2.22;;;-1.50;99.90;;;-2.03;100.00;99700.53;5236172;28;20037;-47
2024/01/17 00:34:35;;;;;;;3.17;2.83;;;-1.50;99.90;;;-2.01;100.00;99696.44;5239175;28;20059;-49
2024/01/17 00:37:09;;;;;;;2.42;1.92;;;-1.40;99.90;;;-2.00;100.00;99700.75;5244293;28;20525;-49
2024/01/17 00:39:41;;;;;;;2.97;1.52;;;-1.40;99.90;;;-2.01;100.00;99696.44;5237946;28;20053;-47
2024/01/17 00:42:15;;;;;;;2.33;1.70;;;-1.40;99.90;;;-2.01;100.00;99683.66;5239482;28;20060;-47
2024/01/17 00:44:47;;;;;;;5.30;1.88;;;-1.50;99.90;;;-2.01;100.00;99693.88;5247464;28;20045;-48
2024/01/17 00:47:20;;;;;;;2.35;1.73;;;-1.50;99.90;;;-2.03;100.00;99679.22;5238219;28;20057;-47
2024/01/17 00:49:52;;;;;;;4.60;2.35;;;-1.50;99.90;;;-2.02;100.00;99671.69;5230948;28;20080;-48
2024/01/17 00:52:25;;;;;;;5.35;2.70;;;-1.50;99.90;;;-2.05;100.00;99655.25;5238520;28;20036;-47
2024/01/17 00:54:57;;;;;;;4.75;2.03;;;-1.50;99.90;;;-2.05;100.00;99660.34;5240748;28;20037;-46
2024/01/17 00:57:31;;;;;;;2.55;2.10;;;-1.50;99.90;;;-2.05;100.00;99655.25;5243339;28;20711;-47
2024/01/17 01:00:04;;;;;;;5.00;2.20;;;-1.50;99.90;;;-2.07;100.00;99655.16;5237545;28;20063;-47
2024/01/17 01:02:37;;;;;;;3.15;2.15;;;-1.50;99.90;;;-2.08;100.00;99643.19;5246531;28;20125;-47
2024/01/17 01:05:10;;;;;;;1.98;1.75;;;-1.50;99.90;;;-2.08;100.00;99635.50;5234445;28;20045;-45
2024/01/17 01:07:43;;;;;;;1.80;1.60;;;-1.50;99.90;;;-2.09;100.00;99628.63;5248859;28;20102;-47
2024/01/17 01:10:15;;;;;;;3.00;1.70;;;-1.50;99.90;;;-2.09;100.00;99623.50;5230130;28;20045;-46
2024/01/17 01:12:49;;;;;;;11.45;1.90;;;-1.50;99.90;;;-2.10;100.00;99624.28;5237146;28;20596;-45
2024/01/17 01:15:22;;;;;;;3.28;2.42;;;-1.50;99.90;;;-2.11;100.00;99614.00;5229018;28;20045;-46
2024/01/17 01:17:54;;;;;;;3.63;2.53;;;-1.50;99.90;;;-2.09;100.00;99615.84;5239766;28;20636;-47
2024/01/17 01:20:26;;;;;;;2.85;2.47;;;-1.50;99.90;;;-2.10;100.00;99608.09;5239930;28;20447;-48
2024/01/17 01:22:59;;;;;;;2.67;2.22;;;-1.60;99.90;;;-2.08;100.00;99602.31;5246343;28;20511;-47
2024/01/17 01:25:31;;;;;;;2.88;2.10;;;-1.50;99.90;;;-2.08;100.00;99599.78;5248332;28;20048;-46
2024/01/17 01:28:06;;;;;;;3.58;2.63;;;-1.50;99.90;;;-2.06;100.00;99602.41;5240561;28;20041;-46
2024/01/17 01:30:38;;;;;;;3.38;1.42;;;-1.50;99.90;;;-2.06;100.00;99599.88;5229751;28;20057;-46
2024/01/17 01:33:10;;;;;;;5.82;2.38;;;-1.50;99.90;;;-2.08;100.00;99589.56;5233488;28;20511;-46
2024/01/17 01:35:43;;;;;;;3.60;3.10;;;-1.50;99.90;;;-2.07;100.00;99593.88;5234864;28;20304;-46
2024/01/17 01:38:15;;;;;;;3.08;1.73;;;-1.50;99.90;;;-2.06;100.00;99587.97;5238832;28;20049;-48
2024/01/17 01:40:47;;;;;;;2.30;1.95;;;-1.50;99.90;;;-2.06;100.00;99585.41;5229118;28;20060;-47
2024/01/17 01:43:22;;;;;;;2.67;2.08;;;-1.50;99.90;;;-2.07;100.00;99578.56;5232504;28;20044;-46
2024/01/17 01:46:13;;;;;;;1.38;1.27;;;-1.50;99.90;;;-2.07;100.00;99580.22;5240217;28;20392;-48
2024/01/17 01:48:47;;;;;;;4.30;2.92;;;-1.50;99.90;;;-2.06;100.00;99577.75;5239533;28;20144;-47
2024/01/17 01:51:21;;;;;;;7.65;3.80;;;-1.50;99.90;;;-2.06;100.00;99572.66;5233337;28;20045;-51
2024/01/17 01:53:58;;;;;;;2.40;1.50;;;-1.50;99.90;;;-2.04;100.00;99565.97;5235569;28;20060;-48
2024/01/17 01:56:34;;;;;;;4.22;1.50;;;-1.50;99.90;;;-2.03;100.00;99561.75;5238161;28;20450;-47
2024/01/17 01:59:11;;;;;;;2.83;2.30;;;-1.50;99.90;;;-2.05;100.00;99553.09;5233154;28;20053;-49
2024/01/17 02:01:45;;;;;;;4.10;1.70;;;-1.40;99.90;;;-2.04;100.00;99560.84;5242187;28;20084;-48
2024/01/17 02:04:18;;;;;;;5.75;2.85;;;-1.50;99.90;;;-2.07;100.00;99555.56;5226989;28;20049;-46
2024/01/17 02:06:53;;;;;;;7.88;3.13;;;-1.50;99.90;;;-2.07;100.00;99542.81;5233478;28;20059;-48
2024/01/17 02:09:26;;;;;;;3.78;2.17;;;-1.50;99.90;;;-2.11;100.00;99538.28;5241791;28;20052;-46
2024/01/17 02:11:59;;;;;;;5.03;2.65;;;-1.50;99.90;;;-2.17;100.00;99532.75;5234321;28;20040;-46
2024/01/17 02:14:35;;;;;;;4.53;2.47;;;-1.50;99.90;;;-2.17;100.00;99530.22;5244092;28;20037;-47
2024/01/17 02:17:09;;;;;;;5.35;2.97;;;-1.50;99.90;;;-2.20;100.00;99527.47;5227434;28;20105;-50
2024/01/17 02:19:42;;;;;;;2.33;1.40;;;-1.50;99.90;;;-2.21;100.00;99531.69;5234399;28;20395;-48
2024/01/17 02:22:15;;;;;;;3.03;2.45;;;-1.60;99.90;;;-2.19;100.00;99529.25;5237047;28;20535;-49
2024/01/17 02:24:51;;;;;;;3.78;1.77;;;-1.60;99.90;;;-2.17;100.00;99530.22;5241409;28;20048;-48
2024/01/17 02:27:24;;;;;;;2.00;1.77;;;-1.60;99.90;;;-2.16;100.00;99519.22;5238232;28;20044;-47
2024/01/17 02:29:56;;;;;;;4.03;1.98;;;-1.50;99.90;;;-2.12;100.00;99510.97;5240646;28;20057;-47
2024/01/17 02:32:29;;;;;;;11.85;2.05;;;-1.50;99.90;;;-2.10;100.00;99503.41;5240987;28;20511;-47
2024/01/17 02:35:02;;;;;;;2.90;1.48;;;-1.50;99.90;;;-2.12;100.00;99502.44;5243779;28;20082;-49
2024/01/17 02:37:34;;;;;;;1.85;1.55;;;-1.50;99.90;;;-2.12;100.00;99495.66;5243952;28;20055;-47
2024/01/17 02:40:09;;;;;;;3.05;2.03;;;-1.50;99.90;;;-2.13;100.00;99487.91;5240271;28;20068;-47
2024/01/17 02:42:42;;;;;;;2.35;2.13;;;-1.50;99.90;;;-2.15;100.00;99490.38;5249994;28;20453;-47
2024/01/17 02:45:15;;;;;;;2.63;2.15;;;-1.50;99.90;;;-2.15;100.00;99480.16;5239661;28;20646;-47
2024/01/17 02:47:47;;;;;;;1.90;1.80;;;-1.60;99.90;;;-2.15;100.00;99475.06;5243174;28;20037;-47
2024/01/17 02:50:20;;;;;;;4.43;1.48;;;-1.60;99.90;;;-2.17;100.00;99466.38;5239575;28;20048;-47
2024/01/17 02:52:53;;;;;;;1.73;1.40;;;-1.60;99.90;;;-2.17;100.00;99461.28;5251581;28;20033;-47
2024/01/17 02:55:27;;;;;;;6.40;2.95;;;-1.60;99.90;;;-2.15;100.00;99459.72;5230090;28;20507;-46
2024/01/17 02:58:00;;;;;;;2.83;2.08;;;-1.50;99.90;;;-2.16;100.00;99463.03;5249733;28;20154;-44
2024/01/17 03:00:33;;;;;;;1.25;1.15;;;-1.60;99.90;;;-2.17;100.00;99456.19;5250325;28;20135;-47
2024/01/17 03:03:06;;;;;;;5.07;2.90;;;-1.60;99.90;;;-2.16;100.00;99446.84;5232111;28;20466;-45
2024/01/17 03:05:39;;;;;;;9.30;3.53;;;-1.60;99.90;;;-2.16;100.00;99436.63;5246190;28;20051;-46
2024/01/17 03:08:11;;;;;;;5.45;2.20;;;-1.60;99.90;;;-2.14;100.00;99440.19;5239942;28;20083;-47
2024/01/17 03:10:45;;;;;;;6.68;1.95;;;-1.60;99.90;;;-2.12;100.00;99438.59;5243908;28;20063;-47
2024/01/17 03:13:17;;;;;;;11.50;3.50;;;-1.60;99.90;;;-2.17;100.00;99440.88;5231783;28;20044;-46
2024/01/17 03:15:50;;;;;;;2.83;1.95;;;-1.60;99.90;;;-2.16;100.00;99444.28;5233610;28;20052;-46
2024/01/17 03:18:22;;;;;;;3.30;2.17;;;-1.50;99.90;;;-2.16;100.00;99434.97;5232142;28;20047;-47
2024/01/17 03:20:54;;;;;;;9.88;2.60;;;-1.60;99.90;;;-2.14;100.00;99429.97;5241956;28;20119;-46
2024/01/17 03:23:27;;;;;;;4.28;2.05;;;-1.50;99.90;;;-2.16;100.00;99429.84;5239593;28;20033;-45
2024/01/17 03:26:00;;;;;;;2.90;2.22;;;-1.60;99.90;;;-2.19;100.00;99420.34;5239148;28;20045;-47
2024/01/17 03:28:33;;;;;;;4.13;2.50;;;-1.60;99.90;;;-2.18;100.00;99413.56;5232624;28;21550;-46
2024/01/17 03:31:09;;;;;;;5.78;2.60;;;-1.60;99.90;;;-2.17;100.00;99415.34;5234590;28;20048;-47
2024/01/17 03:33:41;;;;;;;2.83;2.10;;;-1.60;99.90;;;-2.16;100.00;99400.91;5244590;28;20037;-46
2024/01/17 03:36:13;;;;;;;1.67;1.30;;;-1.50;99.90;;;-2.14;100.00;99394.25;5237967;28;20052;-47
2024/01/17 03:38:46;;;;;;;2.63;2.00;;;-1.50;99.90;;;-2.16;100.00;99391.56;5239417;28;20045;-47
2024/01/17 03:41:20;;;;;;;3.50;2.15;;;-1.50;99.90;;;-2.19;100.00;99386.28;5239356;28;20045;-48
2024/01/17 03:43:52;;;;;;;4.57;2.53;;;-1.60;99.90;;;-2.16;100.00;99383.91;5245503;28;20045;-47
2024/01/17 03:46:24;;;;;;;3.25;1.67;;;-1.60;99.90;;;-2.13;100.00;99379.00;5243162;28;20060;-47
2024/01/17 03:48:57;;;;;;;3.80;1.75;;;-1.60;99.90;;;-2.10;100.00;99368.97;5245971;28;20470;-46
2024/01/17 03:51:29;;;;;;;3.40;2.67;;;-1.50;99.90;;;-2.07;100.00;99365.75;5243782;28;20105;-45
2024/01/17 03:54:02;;;;;;;4.20;2.47;;;-1.50;99.90;;;-2.12;100.00;99360.34;5244226;28;20041;-47
2024/01/17 03:56:36;;;;;;;2.42;2.00;;;-1.50;99.90;;;-2.11;100.00;99349.34;5242884;28;20047;-49
2024/01/17 03:59:08;;;;;;;5.35;2.17;;;-1.50;99.90;;;-2.10;100.00;99330.66;5237321;28;20533;-46
2024/01/17 04:01:44;;;;;;;2.53;1.83;;;-1.50;99.90;;;-2.13;100.00;99322.84;5231468;28;20126;-47
2024/01/17 04:04:16;;;;;;;7.03;2.65;;;-1.50;99.90;;;-2.18;100.00;99326.78;5235023;28;20536;-47
2024/01/17 04:06:49;;;;;;;5.75;2.72;;;-1.50;99.90;;;-2.21;100.00;99319.81;5240139;28;20041;-47
2024/01/17 04:09:21;;;;;;;3.92;1.55;;;-1.50;99.90;;;-2.20;100.00;99308.81;5235613;28;20041;-47
2024/01/17 04:11:55;;;;;;;6.75;2.22;;;-1.50;99.90;;;-2.22;100.00;99289.06;5233962;28;20459;-47
2024/01/17 04:14:27;;;;;;;5.13;1.85;;;-1.60;99.90;;;-2.26;100.00;99289.69;5239450;28;20102;-47
2024/01/17 04:17:00;;;;;;;6.53;2.00;;;-1.60;99.90;;;-2.32;100.00;99274.88;5242115;28;20053;-47
2024/01/17 04:19:32;;;;;;;3.83;1.77;;;-1.60;99.90;;;-2.31;100.00;99278.31;5241675;28;20055;-47
2024/01/17 04:22:05;;;;;;;3.65;2.17;;;-1.70;99.90;;;-2.27;100.00;99264.97;5237178;28;20523;-47
2024/01/17 04:24:37;;;;;;;6.22;2.38;;;-1.60;99.90;;;-2.28;100.00;99258.97;5243723;28;20392;-49
2024/01/17 04:27:11;;;;;;;7.93;3.53;;;-1.60;99.90;;;-2.27;100.00;99259.84;5231834;28;20052;-46
2024/01/17 04:29:43;;;;;;;1.83;1.73;;;-1.70;99.90;;;-2.30;100.00;99254.56;5237073;28;20126;-46
2024/01/17 04:32:16;;;;;;;1.65;1.55;;;-1.60;99.90;;;-2.31;100.00;99240.03;5239965;28;20056;-46
2024/01/17 04:34:48;;;;;;;4.50;3.35;;;-1.60;99.90;;;-2.29;100.00;99230.78;5238384;28;20503;-47
2024/01/17 04:37:21;;;;;;;6.57;2.83;;;-1.70;99.90;;;-2.36;100.00;99226.09;5246425;28;20053;-47
2024/01/17 04:39:53;;;;;;;4.53;2.00;;;-1.70;99.90;;;-2.40;100.00;99230.16;5249356;28;20048;-47
2024/01/17 04:42:27;;;;;;;4.60;2.33;;;-1.70;99.90;;;-2.39;100.00;99223.38;5235371;28;20051;-46
2024/01/17 04:44:59;;;;;;;4.32;2.08;;;-1.70;99.90;;;-2.38;100.00;99214.94;5238184;28;20048;-46
2024/01/17 04:47:32;;;;;;;2.28;1.65;;;-1.70;99.90;;;-2.37;100.00;99203.94;5239773;28;20388;-46
2024/01/17 04:50:06;;;;;;;2.72;1.75;;;-1.70;99.90;;;-2.37;100.00;99198.81;5227936;28;20041;-48
2024/01/17 04:52:38;;;;;;;6.13;1.60;;;-1.70;99.90;;;-2.37;100.00;99186.06;5239361;28;20060;-47
2024/01/17 04:55:10;;;;;;;2.25;2.00;;;-1.70;99.90;;;-2.39;100.00;99180.88;5237283;28;20044;-47
2024/01/17 04:57:44;;;;;;;2.25;1.85;;;-1.80;99.90;;;-2.42;100.00;99174.69;5240797;28;20037;-46
2024/01/17 05:00:17;;;;;;;4.88;2.30;;;-1.80;99.90;;;-2.38;100.00;99163.91;5239047;28;20689;-46
2024/01/17 05:02:49;;;;;;;2.78;1.98;;;-1.80;99.90;;;-2.37;100.00;99155.44;5237446;28;20033;-48
2024/01/17 05:05:22;;;;;;;6.15;2.78;;;-1.70;99.90;;;-2.37;100.00;99151.22;5240425;28;20071;-47
2024/01/17 05:07:54;;;;;;;3.67;1.63;;;-1.80;99.90;;;-2.34;100.00;99137.78;5233619;28;20048;-46
2024/01/17 05:10:26;;;;;;;2.08;1.65;;;-1.70;99.90;;;-2.31;100.00;99145.59;5233469;28;20055;-46
2024/01/17 05:13:00;;;;;;;2.30;1.73;;;-1.70;99.90;;;-2.28;100.00;99143.25;5237972;28;20048;-47
2024/01/17 05:15:36;;;;;;;5.95;1.63;;;-1.70;99.90;;;-2.28;100.00;99135.59;5239873;28;20048;-46
2024/01/17 05:18:09;;;;;;;4.47;2.67;;;-1.70;99.90;;;-2.25;100.00;99125.53;5239859;28;20102;-46
2024/01/17 05:20:42;;;;;;;6.22;1.45;;;-1.70;99.90;;;-2.22;100.00;99128.25;5239971;28;20052;-46
2024/01/17 05:23:18;;;;;;;4.93;2.33;;;-1.70;99.90;;;-2.24;100.00;99122.19;5238393;28;20316;-47
2024/01/17 05:25:50;;;;;;;3.42;2.42;;;-1.60;99.90;;;-2.23;100.00;99118.84;5237544;28;20045;-48
2024/01/17 05:28:24;;;;;;;2.05;1.35;;;-1.60;99.90;;;-2.20;100.00;99108.81;5240650;28;20048;-48
2024/01/17 05:30:56;;;;;;;2.20;1.92;;;-1.60;99.90;;;-2.18;100.00;99104.69;5240053;28;20136;-47
2024/01/17 05:33:29;;;;;;;1.65;1.50;;;-1.60;99.90;;;-2.14;100.00;99109.19;5237496;28;20070;-46
2024/01/17 05:36:01;;;;;;;5.32;2.58;;;-1.50;99.90;;;-2.10;100.00;99100.88;5237993;28;20036;-47
2024/01/17 05:38:33;;;;;;;4.35;2.75;;;-1.50;99.90;;;-2.08;100.00;99099.34;5237409;28;20048;-46
2024/01/17 05:41:06;;;;;;;5.03;3.55;;;-1.50;99.90;;;-2.08;100.00;99096.78;5235680;28;20067;-48
2024/01/17 05:43:39;;;;;;;5.70;1.83;;;-1.50;99.90;;;-2.10;100.00;99080.47;5237162;28;20052;-46
2024/01/17 05:46:12;;;;;;;5.03;3.13;;;-1.50;99.90;;;-2.09;100.00;99076.25;5231797;28;20515;-47
2024/01/17 05:48:44;;;;;;;4.22;2.70;;;-1.50;99.90;;;-2.05;100.00;99065.41;5230151;28;20057;-46
2024/01/17 05:51:16;;;;;;;3.13;2.67;;;-1.40;99.90;;;-2.03;100.00;99072.34;5237151;28;20052;-46
2024/01/17 05:53:49;;;;;;;9.52;2.35;;;-1.40;99.90;;;-1.99;100.00;99061.53;5243897;28;20048;-48
2024/01/17 05:56:21;;;;;;;2.85;2.03;;;-1.40;99.90;;;-1.95;100.00;99060.06;5240847;28;20044;-47
2024/01/17 05:58:55;;;;;;;5.55;2.13;;;-1.30;99.90;;;-1.96;100.00;99048.97;5237789;28;20045;-47
2024/01/17 06:01:27;;;;;;;3.47;2.53;;;-1.30;99.90;;;-1.98;100.00;99045.41;5244964;28;20435;-47
2024/01/17 06:04:00;;;;;;;2.50;1.52;;;-1.30;99.90;;;-1.96;100.00;99048.97;5242331;28;20574;-48
2024/01/17 06:06:32;;;;;;;8.88;2.63;;;-1.30;99.90;;;-1.92;100.00;99044.88;5244519;28;20077;-48
2024/01/17 06:09:06;;;;;;;5.47;2.80;;;-1.30;99.90;;;-1.95;100.00;99047.28;5243552;28;20131;-47
2024/01/17 06:11:39;;;;;;;2.25;1.45;;;-1.30;99.90;;;-1.96;100.00;99040.38;5243000;28;20478;-46
2024/01/17 06:14:12;;;;;;;2.05;1.70;;;-1.30;99.90;;;-1.91;100.00;99036.44;5238083;28;20040;-46
2024/01/17 06:16:46;;;;;;;3.65;1.85;;;-1.30;99.90;;;-1.87;100.00;99030.72;5246311;28;20060;-46
2024/01/17 06:19:19;;;;;;;3.67;1.95;;;-1.30;99.90;;;-1.87;100.00;99022.16;5240337;28;20051;-46
2024/01/17 06:21:51;;;;;;;6.20;2.58;;;-1.20;99.90;;;-1.82;100.00;99024.19;5239252;28;20454;-47
2024/01/17 06:24:23;;;;;;;5.10;2.83;;;-1.20;99.90;;;-1.77;100.00;99019.31;5248497;28;20045;-47
2024/01/17 06:26:56;;;;;;;3.45;1.50;;;-1.20;99.90;;;-1.74;100.00;99009.28;5241617;28;20040;-46
2024/01/17 06:29:30;;;;;;;1.88;1.77;;;-1.20;99.90;;;-1.75;100.00;98997.31;5245730;28;20045;-48
2024/01/17 06:32:03;;;;;;;1.52;1.40;;;-1.20;99.90;;;-1.70;100.00;99001.84;5240269;28;20044;-47
2024/01/17 06:34:36;;;;;;;2.58;1.50;;;-1.10;99.90;;;-1.67;100.00;99003.69;5241736;28;20051;-46
2024/01/17 06:37:08;;;;;;;2.78;1.77;;;-1.00;99.90;;;-1.64;100.00;99001.28;5247080;28;20063;-47
2024/01/17 06:39:44;;;;;;;2.20;2.00;;;-1.00;99.90;;;-1.62;100.00;98996.28;5242918;28;20051;-47
2024/01/17 06:42:17;;;;;;;9.90;1.65;;;-1.00;99.90;;;-1.62;100.00;98997.16;5246886;28;20045;-50
2024/01/17 06:44:50;;;;;;;5.40;2.13;;;-1.00;99.90;;;-1.60;100.00;98995.56;5245198;28;20072;-47
2024/01/17 06:47:23;;;;;;;4.35;2.38;;;-1.00;99.90;;;-1.57;100.00;98990.59;5226079;28;20045;-47
2024/01/17 06:49:55;;;;;;;5.28;1.88;;;-1.00;99.90;;;-1.52;100.00;98991.72;5249370;28;20524;-47
2024/01/17 06:52:28;;;;;;;7.90;2.35;;;-0.90;99.90;;;-1.48;100.00;98982.56;5243694;28;20048;-46
2024/01/17 06:55:00;;;;;;;2.95;1.92;;;-0.90;99.90;;;-1.48;100.00;98963.00;5246847;28;20557;-46
2024/01/17 06:57:33;;;;;;;2.30;1.85;;;-0.90;99.90;;;-1.46;100.00;98968.19;5238405;28;20052;-47
2024/01/17 07:00:08;;;;;;;0.80;0.80;;;-0.90;99.90;;;-1.44;100.00;98964.91;5246007;28;20059;-47
2024/01/17 07:02:41;;;;;;;5.78;1.90;;;-0.80;99.90;;;-1.44;100.00;98958.91;5240844;28;20057;-49
2024/01/17 07:05:13;;;;;;;2.53;1.63;;;-0.80;99.90;;;-1.43;100.00;98956.47;5231483;28;20127;-47
2024/01/17 07:07:45;;;;;;;4.68;2.20;;;-0.80;99.90;;;-1.41;100.00;98961.66;5249342;28;20045;-48
2024/01/17 07:10:18;;;;;;;5.68;2.33;;;-0.80;99.90;;;-1.39;100.00;98957.50;5241775;28;20408;-48
2024/01/17 07:12:50;;;;;;;3.45;2.22;;;-0.80;99.90;;;-1.40;100.00;98948.94;5247809;28;20049;-47
2024/01/17 07:15:27;;;;;;;4.43;2.70;;;-0.80;99.90;;;-1.34;100.00;98945.84;5241246;28;20052;-47
2024/01/17 07:18:00;;;;;;;4.80;1.85;;;-0.80;99.90;;;-1.29;100.00;98943.53;5238082;28;20056;-47
2024/01/17 07:20:32;;;;;;;4.07;1.90;;;-0.70;99.90;;;-1.27;100.00;98939.34;5233398;28;20045;-48
2024/01/17 07:23:05;;;;;;;2.80;1.90;;;-0.70;99.90;;;-1.28;100.00;98941.03;5246905;28;20049;-47
2024/01/17 07:25:38;;;;;;;3.30;2.33;;;-0.70;99.90;;;-1.28;100.00;98929.94;5242197;28;20063;-46
2024/01/17 07:28:10;;;;;;;3.72;2.35;;;-0.70;99.90;;;-1.29;100.00;98923.06;5230405;28;20082;-47
2024/01/17 07:30:44;;;;;;;3.50;2.38;;;-0.70;99.90;;;-1.27;100.00;98919.78;5244990;28;20060;-47
2024/01/17 07:33:17;;;;;;;3.60;2.17;;;-0.70;99.90;;;-1.29;100.00;98908.63;5241316;28;20334;-47
2024/01/17 07:35:52;;;;;;;2.20;1.80;;;-0.70;99.90;;;-1.29;100.00;98898.38;5227110;28;20049;-45
2024/01/17 07:38:25;;;;;;;3.40;2.20;;;-0.70;99.90;;;-1.28;100.00;98902.69;5244910;28;20055;-46
2024/01/17 07:40:58;;;;;;;2.90;1.98;;;-0.70;99.90;;;-1.29;100.00;98892.41;5240596;28;20048;-46
2024/01/17 07:43:31;;;;;;;5.30;2.88;;;-0.70;99.90;;;-1.27;100.00;98880.56;5249292;28;20052;-48
2024/01/17 07:46:05;;;;;;;2.63;1.70;;;-0.70;99.90;;;-1.28;100.00;98884.81;5244236;28;20055;-47
2024/01/17 07:48:38;;;;;;;3.95;1.77;;;-0.60;99.90;;;-1.32;100.00;98866.66;5240690;28;20055;-46
2024/01/17 07:51:10;;;;;;;6.40;2.08;;;-0.60;99.90;;;-1.38;100.00;98859.56;5233669;28;20049;-46
2024/01/17 07:53:42;;;;;;;4.63;2.05;;;-0.70;99.90;;;-1.34;100.00;98858.06;5234619;28;20045;-46
2024/01/17 07:56:15;;;;;;;3.88;2.10;;;-0.70;99.90;;;-1.30;100.00;98844.63;5245715;28;20541;-46
2024/01/17 07:58:47;;;;;;;3.00;2.03;;;-0.70;99.90;;;-1.28;100.00;98846.47;5244595;28;20056;-46
2024/01/17 08:01:21;;;;;;;3.75;2.15;;;-0.60;99.90;;;-1.26;100.00;98844.84;5244512;28;20036;-46
2024/01/17 08:03:53;;;;;;;2.08;1.27;;;-0.70;99.90;;;-1.23;100.00;98831.38;5235287;28;20239;-46
2024/01/17 08:06:26;;;;;;;5.80;2.28;;;-0.60;99.90;;;-1.25;100.00;98830.38;5239575;28;20634;-46
2024/01/17 08:08:59;;;;;;;3.30;1.65;;;-0.60;99.90;;;-1.18;100.00;98825.66;5246383;28;20053;-46
2024/01/17 08:11:31;;;;;;;5.00;2.58;;;-0.60;99.90;;;-1.11;100.00;98822.63;5241717;28;20415;-46
2024/01/17 08:14:03;;;;;;;4.13;1.98;;;-0.50;99.90;;;-1.07;100.00;98820.19;5244036;28;20082;-46
2024/01/17 08:16:37;;;;;;;5.85;3.03;;;-0.50;99.90;;;-1.05;100.00;98806.66;5242938;28;20068;-47
2024/01/17 08:19:10;;;;;;;4.57;2.33;;;-0.40;99.90;;;-1.06;100.00;98810.03;5230523;28;20037;-46
2024/01/17 08:21:42;;;;;;;2.60;2.00;;;-0.40;99.90;;;-0.88;100.00;98800.69;5244278;28;20052;-46
2024/01/17 08:24:15;;;;;;;4.40;2.35;;;-0.30;99.90;;;-0.82;100.00;98790.75;5244564;28;20048;-46
2024/01/17 08:26:47;;;;;;;5.22;2.83;;;-0.20;99.90;;;-0.84;100.00;98792.38;5241788;28;20044;-46
2024/01/17 08:29:20;;;;;;;4.10;1.98;;;-0.20;99.90;;;-0.83;100.00;98780.47;5243283;28;20045;-47
2024/01/17 08:31:53;;;;;;;11.77;2.78;;;-0.20;99.90;;;-0.89;100.00;98768.25;5239256;28;20071;-47
2024/01/17 08:34:26;;;;;;;5.35;2.67;;;-0.30;99.90;;;-0.87;100.00;98771.75;5242993;28;20037;-46
2024/01/17 08:37:00;;;;;;;3.15;2.53;;;-0.30;99.90;;;-0.89;100.00;98770.81;5225678;28;20131;-47
2024/01/17 08:39:32;;;;;;;2.42;1.98;;;-0.30;99.90;;;-0.84;100.00;98768.50;5242277;28;20420;-46
2024/01/17 08:42:05;;;;;;;3.05;2.03;;;-0.30;99.90;;;-0.80;100.00;98766.94;5241609;28;20041;-46
2024/01/17 08:44:37;;;;;;;5.40;2.28;;;-0.20;99.90;;;-0.76;100.00;98758.59;5246016;28;20053;-47
2024/01/17 08:47:11;;;;;;;2.28;1.92;;;-0.20;99.90;;;-0.79;100.00;98754.19;5232864;28;20056;-47
2024/01/17 08:49:46;;;;;;;3.33;2.40;;;-0.20;99.90;;;-0.80;100.00;98749.03;5239482;28;20051;-46
2024/01/17 08:52:19;;;;;;;7.00;3.35;;;-0.20;99.90;;;-0.80;100.00;98751.59;5242203;28;20055;-47
2024/01/17 08:54:52;;;;;;;4.28;3.05;;;-0.20;99.90;;;-0.82;100.00;98742.16;5243563;28;20235;-46
2024/01/17 08:57:24;;;;;;;4.15;2.30;;;-0.20;99.90;;;-0.85;100.00;98739.47;5243698;28;20076;-46
2024/01/17 09:00:00;;;;;;;4.78;2.58;;;-0.20;99.90;;;-0.88;100.00;98734.19;5244413;28;20056;-47
2024/01/17 09:02:33;;;;;;;4.45;2.45;;;-0.20;99.90;;;-0.87;100.00;98735.06;5245596;28;20052;-47
2024/01/17 09:05:07;;;;;;;4.30;2.38;;;-0.20;99.90;;;-0.80;100.00;98731.13;5248789;28;20068;-48
2024/01/17 09:07:43;;;;;;;6.32;2.53;;;-0.20;99.90;;;-0.74;100.00;98731.41;5251609;28;20053;-46
2024/01/17 09:10:17;;;;;;;7.68;2.78;;;-0.20;99.90;;;-0.71;100.00;98731.56;5236993;28;20040;-47
2024/01/17 09:12:50;;;;;;;5.85;2.42;;;-0.10;99.90;;;-0.69;100.00;98724.81;5248758;28;20456;-46
2024/01/17 09:15:23;;;;;;;3.33;2.22;;;-0.10;99.90;;;-0.65;100.00;98726.72;5236053;28;20052;-47
2024/01/17 09:17:57;;;;;;;5.10;2.85;;;-0.10;99.90;;;-0.59;100.00;98717.66;5243135;28;20401;-47
2024/01/17 09:20:30;;;;;;;2.30;1.98;;;-0.10;99.90;;;-0.54;100.00;98705.03;5234934;28;20173;-46
2024/01/17 09:23:03;;;;;;;7.78;2.60;;;0.00;99.90;;;-0.56;100.00;98699.00;5244821;28;20499;-47
2024/01/17 09:25:35;;;;;;;2.85;2.08;;;0.00;99.90;;;-0.54;100.00;98699.91;5245780;28;20403;-47
2024/01/17 09:28:09;;;;;;;6.00;2.35;;;0.00;99.90;;;-0.52;100.00;98692.31;5248325;28;20418;-45
2024/01/17 09:30:41;;;;;;;6.15;2.97;;;0.00;99.90;;;-0.48;100.00;98687.41;5252158;28;20055;-47
2024/01/17 09:33:15;;;;;;;4.95;3.40;;;0.10;99.90;;;-0.25;100.00;98677.31;5238856;28;20049;-47
2024/01/17 09:35:48;;;;;;;5.30;2.33;;;0.20;99.90;;;-0.20;100.00;98673.25;5255183;28;20411;-46
2024/01/17 09:38:20;;;;;;;4.20;2.45;;;0.30;99.90;;;-0.24;100.00;98674.81;5240624;28;20059;-46
2024/01/17 09:40:53;;;;;;;2.85;2.00;;;0.30;99.90;;;-0.27;100.00;98660.19;5248352;28;20041;-47
2024/01/17 09:43:25;;;;;;;4.35;3.13;;;0.30;99.90;;;-0.33;100.00;98667.63;5246630;28;20119;-46
2024/01/17 09:46:02;;;;;;;8.02;2.95;;;0.30;99.90;;;-0.30;100.00;98665.19;5244360;28;20208;-46
2024/01/17 09:48:36;;;;;;;7.10;3.10;;;0.30;99.90;;;-0.30;100.00;98661.75;5250467;28;20057;-47
2024/01/17 09:51:08;;;;;;;5.63;3.10;;;0.30;99.90;;;-0.31;100.00;98653.19;5245364;28;20049;-46
2024/01/17 09:53:47;;;;;;;6.25;3.22;;;0.30;99.90;;;-0.32;100.00;98641.22;5252439;28;20056;-47
2024/01/17 09:56:24;;;;;;;7.40;2.83;;;0.30;99.90;;;-0.29;100.00;98646.44;5252654;28;20102;-47
2024/01/17 09:58:57;;;;;;;6.15;2.88;;;0.30;99.90;;;-0.29;100.00;98656.69;5256529;28;20503;-47
2024/01/17 10:01:32;;;;;;;5.95;3.05;;;0.30;99.90;;;-0.29;100.00;98651.56;5245368;28;20056;-46
2024/01/17 10:04:11;;;;;;;7.32;2.83;;;0.30;99.90;;;-0.26;100.00;98645.72;5255647;28;20589;-46
2024/01/17 10:06:45;;;;;;;5.30;3.40;;;0.30;99.90;;;0.28;100.00;98645.41;5248324;28;20076;-46
2024/01/17 10:09:18;;;;;;;3.30;2.70;;;0.60;99.90;;;0.32;100.00;98652.38;5246463;28;20087;-46
2024/01/17 10:11:50;;;;;;;4.57;3.78;;;0.80;99.90;;;0.22;100.00;98654.59;5250050;28;20736;-46
2024/01/17 10:14:24;;;;;;;8.27;3.17;;;0.80;99.90;;;0.20;100.00;98655.34;5238706;28;20423;-46
2024/01/17 10:16:57;;;;;;;7.22;3.35;;;0.80;99.90;;;0.15;100.00;98644.91;5241485;28;20580;-46
2024/01/17 10:19:31;;;;;;;8.70;2.88;;;0.70;99.90;;;0.11;100.00;98637.88;5239618;28;20147;-47
2024/01/17 10:22:06;;;;;;;5.78;3.13;;;0.70;99.90;;;0.05;100.00;98641.88;5258755;28;20063;-46
2024/01/17 10:24:39;;;;;;;4.03;2.10;;;0.60;99.90;;;0.01;100.00;98634.91;5249248;28;20412;-47
2024/01/17 10:27:12;;;;;;;14.95;4.03;;;0.60;99.90;;;0.00;100.00;98631.47;5257396;28;20041;-47
2024/01/17 10:29:44;;;;;;;3.97;2.55;;;0.60;99.90;;;0.01;100.00;98628.09;5251039;28;20546;-48
2024/01/17 10:32:19;;;;;;;11.57;3.53;;;0.60;99.90;;;-0.04;100.00;98621.88;5246931;28;20045;-47
2024/01/17 10:34:53;;;;;;;9.57;2.83;;;0.60;99.90;;;0.54;100.00;98611.44;5236417;28;20495;-47
2024/01/17 10:37:27;;;;;;;7.10;3.38;;;0.90;99.90;;;0.64;100.00;98610.97;5248705;28;20045;-48